Time,TemperatureF,DewpointF,PressureIn,WindDirection,WindDirectionDegrees,WindSpeedMPH,WindSpeedGustMPH,Humidity,HourlyPrecipIn,Conditions,Clouds,dailyrainin,SoftwareType,DateUTC
2013-08-31 00:02:00,56.8,53.3,30.00,NW,315,0.4,0.4,88,0.00,,,0.00,WUHU216HW,2013-08-31 07:02:00,
2013-08-31 00:07:00,56.6,53.1,30.00,NW,315,0.0,0.7,88,0.00,,,0.00,WUHU216HW,2013-08-31 07:07:00,
2013-08-31 00:12:00,56.6,53.1,30.00,NW,315,0.0,0.7,88,0.00,,,0.00,WUHU216HW,2013-08-31 07:12:00,
2013-08-31 00:17:00,56.5,53.0,30.00,NW,315,0.0,0.4,88,0.00,,,0.00,WUHU216HW,2013-08-31 07:17:00,
2013-08-31 00:22:00,56.5,53.0,30.00,NW,315,0.0,0.4,88,0.00,,,0.00,WUHU216HW,2013-08-31 07:22:00,
2013-08-31 00:27:00,56.3,52.5,30.00,NW,315,0.4,0.4,87,0.00,,,0.00,WUHU216HW,2013-08-31 07:27:00,
2013-08-31 00:32:00,56.1,52.3,30.00,NW,315,0.2,0.4,87,0.00,,,0.00,WUHU216HW,2013-08-31 07:32:00,
2013-08-31 00:37:00,55.9,52.1,30.00,NW,315,0.7,0.7,87,0.00,,,0.00,WUHU216HW,2013-08-31 07:37:00,
2013-08-31 00:42:00,55.9,52.1,30.00,NW,315,0.4,0.9,87,0.00,,,0.00,WUHU216HW,2013-08-31 07:42:00,
2013-08-31 00:47:00,55.7,51.9,30.00,NW,315,0.0,0.9,87,0.00,,,0.00,WUHU216HW,2013-08-31 07:47:00,
2013-08-31 00:52:00,55.9,52.1,30.00,NW,315,0.0,0.4,87,0.00,,,0.00,WUHU216HW,2013-08-31 07:52:00,
2013-08-31 00:57:00,55.9,52.1,30.00,NW,315,0.0,0.4,87,0.00,,,0.00,WUHU216HW,2013-08-31 07:57:00,
2013-08-31 01:02:00,55.7,51.9,30.00,NW,315,0.0,0.2,87,0.00,,,0.00,WUHU216HW,2013-08-31 08:02:00,
2013-08-31 01:07:00,55.7,51.9,30.00,NW,315,0.0,0.2,87,0.00,,,0.00,WUHU216HW,2013-08-31 08:07:00,
2013-08-31 01:12:00,55.7,52.2,30.00,NW,315,0.0,0.2,88,0.00,,,0.00,WUHU216HW,2013-08-31 08:12:00,
2013-08-31 01:17:00,55.6,52.1,30.00,NW,315,0.0,0.2,88,0.00,,,0.00,WUHU216HW,2013-08-31 08:17:00,
2013-08-31 01:22:00,55.6,52.1,30.00,NW,315,0.0,0.2,88,0.00,,,0.00,WUHU216HW,2013-08-31 08:22:00,
2013-08-31 01:27:00,55.4,51.9,30.00,NW,315,0.2,0.2,88,0.00,,,0.00,WUHU216HW,2013-08-31 08:27:00,
2013-08-31 01:32:00,55.4,51.9,30.00,NW,315,0.4,0.7,88,0.00,,,0.00,WUHU216HW,2013-08-31 08:32:00,
2013-08-31 01:37:00,55.4,51.9,29.99,NW,315,0.7,0.9,88,0.00,,,0.00,WUHU216HW,2013-08-31 08:37:00,
2013-08-31 01:42:00,55.4,51.9,29.99,NW,315,0.2,1.1,88,0.00,,,0.00,WUHU216HW,2013-08-31 08:42:00,
2013-08-31 01:47:00,55.4,51.9,29.99,NW,315,0.0,1.1,88,0.00,,,0.00,WUHU216HW,2013-08-31 08:47:00,
2013-08-31 01:52:00,55.2,51.7,29.99,NW,315,0.0,0.9,88,0.00,,,0.00,WUHU216HW,2013-08-31 08:52:00,
2013-08-31 01:57:00,55.0,51.5,29.99,NW,315,0.0,0.9,88,0.00,,,0.00,WUHU216HW,2013-08-31 08:57:00,
2013-08-31 02:02:00,55.0,51.5,29.99,NW,315,0.0,0.4,88,0.00,,,0.00,WUHU216HW,2013-08-31 09:02:00,
2013-08-31 02:07:00,54.7,51.2,29.99,NW,315,0.0,0.0,88,0.00,,,0.00,WUHU216HW,2013-08-31 09:07:00,
2013-08-31 02:12:00,54.7,51.2,29.99,NW,315,0.0,0.0,88,0.00,,,0.00,WUHU216HW,2013-08-31 09:12:00,
2013-08-31 02:17:00,54.7,51.2,29.99,NW,315,0.0,0.0,88,0.00,,,0.00,WUHU216HW,2013-08-31 09:17:00,
2013-08-31 02:22:00,54.7,51.2,29.99,NW,315,0.2,0.4,88,0.00,,,0.00,WUHU216HW,2013-08-31 09:22:00,
2013-08-31 02:27:00,54.7,51.5,29.99,NW,315,0.0,0.4,89,0.00,,,0.00,WUHU216HW,2013-08-31 09:27:00,
2013-08-31 02:32:00,54.7,51.2,29.99,NW,315,0.7,0.7,88,0.00,,,0.00,WUHU216HW,2013-08-31 09:32:00,
2013-08-31 02:37:00,54.5,51.3,29.98,NW,315,0.4,0.7,89,0.00,,,0.00,WUHU216HW,2013-08-31 09:37:00,
2013-08-31 02:42:00,54.5,51.3,29.98,NW,315,0.0,0.9,89,0.00,,,0.00,WUHU216HW,2013-08-31 09:42:00,
2013-08-31 02:47:00,54.3,50.8,29.98,NW,315,0.0,0.9,88,0.00,,,0.00,WUHU216HW,2013-08-31 09:47:00,
2013-08-31 02:52:00,54.3,51.1,29.98,NW,315,0.0,0.2,89,0.00,,,0.00,WUHU216HW,2013-08-31 09:52:00,
2013-08-31 02:57:00,54.3,51.1,29.98,NW,315,0.0,0.0,89,0.00,,,0.00,WUHU216HW,2013-08-31 09:57:00,
2013-08-31 03:02:00,54.1,50.9,29.98,NW,315,0.0,0.0,89,0.00,,,0.00,WUHU216HW,2013-08-31 10:02:00,
2013-08-31 03:07:00,54.1,50.9,29.98,NW,315,0.0,0.0,89,0.00,,,0.00,WUHU216HW,2013-08-31 10:07:00,
2013-08-31 03:12:00,54.1,50.9,29.98,NW,315,0.7,0.9,89,0.00,,,0.00,WUHU216HW,2013-08-31 10:12:00,
2013-08-31 03:17:00,54.3,51.1,29.98,NW,315,0.0,1.1,89,0.00,,,0.00,WUHU216HW,2013-08-31 10:17:00,
2013-08-31 03:22:00,54.3,51.1,29.98,NW,315,0.0,1.1,89,0.00,,,0.00,WUHU216HW,2013-08-31 10:22:00,
2013-08-31 03:27:00,54.3,51.1,29.98,NW,315,0.2,0.4,89,0.00,,,0.00,WUHU216HW,2013-08-31 10:27:00,
2013-08-31 03:32:00,53.9,50.7,29.98,NW,315,0.0,0.4,89,0.00,,,0.00,WUHU216HW,2013-08-31 10:32:00,
2013-08-31 03:37:00,53.9,50.7,29.98,NW,315,0.0,0.4,89,0.00,,,0.00,WUHU216HW,2013-08-31 10:37:00,
2013-08-31 03:42:00,53.8,50.6,29.98,NW,315,0.0,0.2,89,0.00,,,0.00,WUHU216HW,2013-08-31 10:42:00,
2013-08-31 03:47:00,53.8,50.6,29.98,NW,315,0.4,0.9,89,0.00,,,0.00,WUHU216HW,2013-08-31 10:47:00,
2013-08-31 03:52:00,53.8,50.6,29.98,NW,315,0.0,0.9,89,0.00,,,0.00,WUHU216HW,2013-08-31 10:52:00,
2013-08-31 03:57:00,53.8,50.6,29.98,NW,315,0.4,0.7,89,0.00,,,0.00,WUHU216HW,2013-08-31 10:57:00,
2013-08-31 04:02:00,53.8,50.6,29.97,NW,315,0.2,0.9,89,0.00,,,0.00,WUHU216HW,2013-08-31 11:02:00,
2013-08-31 04:06:00,53.6,50.4,29.98,NW,315,0.0,0.9,89,0.00,,,0.00,WUHU216HW,2013-08-31 11:06:00,
2013-08-31 04:12:00,53.6,50.4,29.98,NW,315,0.0,0.4,89,0.00,,,0.00,WUHU216HW,2013-08-31 11:12:00,
2013-08-31 04:17:00,53.6,50.4,29.98,NW,315,0.0,0.4,89,0.00,,,0.00,WUHU216HW,2013-08-31 11:17:00,
2013-08-31 04:21:00,53.4,50.2,29.98,NW,315,0.0,0.4,89,0.00,,,0.00,WUHU216HW,2013-08-31 11:21:00,
2013-08-31 04:26:00,53.4,50.2,29.98,NW,315,0.0,0.0,89,0.00,,,0.00,WUHU216HW,2013-08-31 11:26:00,
2013-08-31 04:31:00,53.4,50.2,29.98,NW,315,0.2,0.4,89,0.00,,,0.00,WUHU216HW,2013-08-31 11:31:00,
2013-08-31 04:36:00,53.4,50.2,29.97,NNE,23,0.2,1.1,89,0.00,,,0.00,WUHU216HW,2013-08-31 11:36:00,
2013-08-31 04:41:00,53.4,50.2,29.97,NNE,23,0.4,1.1,89,0.00,,,0.00,WUHU216HW,2013-08-31 11:41:00,
2013-08-31 04:46:00,53.2,50.0,29.97,NNE,23,0.0,1.1,89,0.00,,,0.00,WUHU216HW,2013-08-31 11:46:00,
2013-08-31 04:51:00,53.2,50.0,29.97,NW,315,0.7,1.1,89,0.00,,,0.00,WUHU216HW,2013-08-31 11:51:00,
2013-08-31 04:56:00,53.0,49.8,29.97,NW,315,0.4,1.1,89,0.00,,,0.00,WUHU216HW,2013-08-31 11:56:00,
2013-08-31 05:02:00,52.9,49.7,29.97,NW,315,0.0,1.1,89,0.00,,,0.00,WUHU216HW,2013-08-31 12:02:00,
2013-08-31 05:07:00,52.9,49.7,29.97,NW,315,0.4,0.7,89,0.00,,,0.00,WUHU216HW,2013-08-31 12:07:00,
2013-08-31 05:12:00,52.9,49.7,29.97,NW,315,0.0,0.4,89,0.00,,,0.00,WUHU216HW,2013-08-31 12:12:00,
2013-08-31 05:17:00,52.7,49.5,29.97,NW,315,0.0,0.4,89,0.00,,,0.00,WUHU216HW,2013-08-31 12:17:00,
2013-08-31 05:22:00,52.7,49.5,29.97,NW,315,0.0,0.0,89,0.00,,,0.00,WUHU216HW,2013-08-31 12:22:00,
2013-08-31 05:27:00,52.7,49.5,29.96,NW,315,0.0,0.0,89,0.00,,,0.00,WUHU216HW,2013-08-31 12:27:00,
2013-08-31 05:32:00,52.7,49.5,29.96,NW,315,0.2,0.4,89,0.00,,,0.00,WUHU216HW,2013-08-31 12:32:00,
2013-08-31 05:37:00,52.7,49.5,29.96,NW,315,0.0,0.4,89,0.00,,,0.00,WUHU216HW,2013-08-31 12:37:00,
2013-08-31 05:42:00,52.5,49.3,29.96,NW,315,0.4,0.4,89,0.00,,,0.00,WUHU216HW,2013-08-31 12:42:00,
2013-08-31 05:47:00,52.5,49.3,29.97,NW,315,0.0,0.4,89,0.00,,,0.00,WUHU216HW,2013-08-31 12:47:00,
2013-08-31 05:52:00,52.3,49.1,29.97,NW,315,0.0,0.4,89,0.00,,,0.00,WUHU216HW,2013-08-31 12:52:00,
2013-08-31 05:57:00,52.1,48.9,29.97,NW,315,0.0,0.4,89,0.00,,,0.00,WUHU216HW,2013-08-31 12:57:00,
2013-08-31 06:02:00,52.1,48.9,29.97,NW,315,0.0,0.4,89,0.00,,,0.00,WUHU216HW,2013-08-31 13:02:00,
2013-08-31 06:07:00,52.1,48.9,29.97,NW,315,0.0,0.4,89,0.00,,,0.00,WUHU216HW,2013-08-31 13:07:00,
2013-08-31 06:12:00,52.1,49.2,29.97,NW,315,0.4,0.9,90,0.00,,,0.00,WUHU216HW,2013-08-31 13:12:00,
2013-08-31 06:17:00,52.1,49.2,29.97,NW,315,0.0,0.9,90,0.00,,,0.00,WUHU216HW,2013-08-31 13:17:00,
2013-08-31 06:22:00,52.1,49.2,29.97,WNW,293,0.4,1.1,90,0.00,,,0.00,WUHU216HW,2013-08-31 13:22:00,
2013-08-31 06:27:00,52.1,49.2,29.97,NW,315,0.2,1.1,90,0.00,,,0.00,WUHU216HW,2013-08-31 13:27:00,
2013-08-31 06:32:00,52.1,49.2,29.96,NW,315,0.0,0.4,90,0.00,,,0.00,WUHU216HW,2013-08-31 13:32:00,
2013-08-31 06:37:00,52.0,49.1,29.96,NW,315,0.0,0.2,90,0.00,,,0.00,WUHU216HW,2013-08-31 13:37:00,
2013-08-31 06:41:00,52.0,49.1,29.96,NW,315,0.0,0.2,90,0.00,,,0.00,WUHU216HW,2013-08-31 13:41:00,
2013-08-31 06:47:00,52.0,49.1,29.96,NW,315,0.4,0.7,90,0.00,,,0.00,WUHU216HW,2013-08-31 13:47:00,
2013-08-31 06:52:00,52.1,49.2,29.96,NW,315,0.2,1.1,90,0.00,,,0.00,WUHU216HW,2013-08-31 13:52:00,
2013-08-31 06:57:00,52.1,49.2,29.96,NW,315,0.0,1.1,90,0.00,,,0.00,WUHU216HW,2013-08-31 13:57:00,
2013-08-31 07:02:00,52.1,49.2,29.96,NW,315,0.4,1.1,90,0.00,,,0.00,WUHU216HW,2013-08-31 14:02:00,
2013-08-31 07:06:00,52.0,49.1,29.96,NW,315,0.0,1.1,90,0.00,,,0.00,WUHU216HW,2013-08-31 14:06:00,
2013-08-31 07:11:00,52.1,49.2,29.96,NW,315,0.0,0.4,90,0.00,,,0.00,WUHU216HW,2013-08-31 14:11:00,
2013-08-31 07:17:00,52.0,49.1,29.96,NW,315,0.0,0.0,90,0.00,,,0.00,WUHU216HW,2013-08-31 14:17:00,
2013-08-31 07:22:00,52.1,49.2,29.96,NW,315,0.0,0.7,90,0.00,,,0.00,WUHU216HW,2013-08-31 14:22:00,
2013-08-31 07:26:00,52.1,49.2,29.96,NW,315,0.4,0.7,90,0.00,,,0.00,WUHU216HW,2013-08-31 14:26:00,
2013-08-31 07:31:00,52.1,49.2,29.95,NW,315,0.0,0.4,90,0.00,,,0.00,WUHU216HW,2013-08-31 14:31:00,
2013-08-31 07:36:00,52.3,49.7,29.95,NW,315,0.0,0.4,91,0.00,,,0.00,WUHU216HW,2013-08-31 14:36:00,
2013-08-31 07:41:00,52.3,49.7,29.95,NNW,338,0.2,0.7,91,0.00,,,0.00,WUHU216HW,2013-08-31 14:41:00,
2013-08-31 07:46:00,52.5,49.9,29.95,NNW,338,0.0,0.7,91,0.00,,,0.00,WUHU216HW,2013-08-31 14:46:00,
2013-08-31 07:51:00,52.9,50.3,29.95,NNW,338,0.4,0.7,91,0.00,,,0.00,WUHU216HW,2013-08-31 14:51:00,
2013-08-31 07:56:00,52.9,50.3,29.95,WSW,248,0.7,1.8,91,0.00,,,0.00,WUHU216HW,2013-08-31 14:56:00,
2013-08-31 08:01:00,53.0,50.4,29.95,NE,45,0.4,2.5,91,0.00,,,0.00,WUHU216HW,2013-08-31 15:01:00,
2013-08-31 08:06:00,53.4,50.8,29.95,NE,45,0.2,2.5,91,0.00,,,0.00,WUHU216HW,2013-08-31 15:06:00,
2013-08-31 08:11:00,53.6,51.3,29.95,NE,45,0.0,1.1,92,0.00,,,0.00,WUHU216HW,2013-08-31 15:11:00,
2013-08-31 08:16:00,53.9,51.6,29.95,SSW,203,0.4,0.4,92,0.00,,,0.00,WUHU216HW,2013-08-31 15:16:00,
2013-08-31 08:21:00,54.1,51.8,29.95,ESE,113,0.2,1.3,92,0.00,,,0.00,WUHU216HW,2013-08-31 15:21:00,
2013-08-31 08:26:00,54.5,52.2,29.95,SE,135,1.1,1.8,92,0.00,,,0.00,WUHU216HW,2013-08-31 15:26:00,
2013-08-31 08:31:00,54.8,52.5,29.94,East,90,0.9,1.8,92,0.00,,,0.00,WUHU216HW,2013-08-31 15:31:00,
2013-08-31 08:36:00,55.4,53.1,29.94,SE,135,0.2,1.8,92,0.00,,,0.00,WUHU216HW,2013-08-31 15:36:00,
2013-08-31 08:41:00,55.7,53.4,29.94,SSE,158,1.8,1.8,92,0.00,,,0.00,WUHU216HW,2013-08-31 15:41:00,
2013-08-31 08:46:00,55.9,53.6,29.94,South,180,2.5,2.9,92,0.00,,,0.00,WUHU216HW,2013-08-31 15:46:00,
2013-08-31 08:51:00,56.5,54.2,29.94,SW,225,0.4,2.9,92,0.00,,,0.00,WUHU216HW,2013-08-31 15:51:00,
2013-08-31 08:56:00,56.8,54.5,29.94,West,270,0.4,2.5,92,0.00,,,0.00,WUHU216HW,2013-08-31 15:56:00,
2013-08-31 09:01:00,56.8,54.2,29.94,SSE,158,0.9,0.9,91,0.00,,,0.00,WUHU216HW,2013-08-31 16:01:00,
2013-08-31 09:06:00,57.0,54.1,29.94,WSW,248,0.9,1.3,90,0.00,,,0.00,WUHU216HW,2013-08-31 16:06:00,
2013-08-31 09:11:00,57.2,54.6,29.94,SSE,158,2.0,2.2,91,0.00,,,0.00,WUHU216HW,2013-08-31 16:11:00,
2013-08-31 09:16:00,57.5,54.9,29.94,SE,135,1.3,2.2,91,0.00,,,0.00,WUHU216HW,2013-08-31 16:16:00,
2013-08-31 09:21:00,57.9,55.0,29.94,ESE,113,2.2,2.2,90,0.00,,,0.00,WUHU216HW,2013-08-31 16:21:00,
2013-08-31 09:26:00,58.6,55.3,29.94,East,90,1.6,2.2,89,0.00,,,0.00,WUHU216HW,2013-08-31 16:26:00,
2013-08-31 09:31:00,59.0,55.7,29.94,SSE,158,2.2,2.5,89,0.00,,,0.00,WUHU216HW,2013-08-31 16:31:00,
2013-08-31 09:36:00,59.3,55.7,29.94,South,180,1.8,2.5,88,0.00,,,0.00,WUHU216HW,2013-08-31 16:36:00,
2013-08-31 09:41:00,59.7,56.1,29.94,South,180,1.8,2.5,88,0.00,,,0.00,WUHU216HW,2013-08-31 16:41:00,
2013-08-31 09:46:00,60.1,56.2,29.93,ESE,113,1.8,2.5,87,0.00,,,0.00,WUHU216HW,2013-08-31 16:46:00,
2013-08-31 09:51:00,60.4,56.5,29.93,ESE,113,0.9,2.2,87,0.00,,,0.00,WUHU216HW,2013-08-31 16:51:00,
2013-08-31 09:56:00,60.8,56.9,29.93,SE,135,1.8,2.0,87,0.00,,,0.00,WUHU216HW,2013-08-31 16:56:00,
2013-08-31 10:01:00,61.1,56.9,29.93,SE,135,1.3,1.8,86,0.00,,,0.00,WUHU216HW,2013-08-31 17:01:00,
2013-08-31 10:06:00,61.5,57.0,29.93,SE,135,1.8,2.5,85,0.00,,,0.00,WUHU216HW,2013-08-31 17:06:00,
2013-08-31 10:11:00,61.7,56.8,29.93,SE,135,0.9,2.5,84,0.00,,,0.00,WUHU216HW,2013-08-31 17:11:00,
2013-08-31 10:16:00,62.0,56.8,29.93,SSE,158,1.8,2.2,83,0.00,,,0.00,WUHU216HW,2013-08-31 17:16:00,
2013-08-31 10:21:00,62.2,57.0,29.92,SSE,158,1.8,2.5,83,0.00,,,0.00,WUHU216HW,2013-08-31 17:21:00,
2013-08-31 10:26:00,62.4,57.2,29.92,SSE,158,2.0,2.5,83,0.00,,,0.00,WUHU216HW,2013-08-31 17:26:00,
2013-08-31 10:31:00,62.8,57.6,29.92,SE,135,2.9,3.6,83,0.00,,,0.00,WUHU216HW,2013-08-31 17:31:00,
2013-08-31 10:36:00,62.9,57.4,29.92,SE,135,1.3,3.6,82,0.00,,,0.00,WUHU216HW,2013-08-31 17:36:00,
2013-08-31 10:41:00,63.3,58.1,29.92,ESE,113,1.3,2.9,83,0.00,,,0.00,WUHU216HW,2013-08-31 17:41:00,
2013-08-31 10:46:00,63.5,58.0,29.92,SSW,203,0.9,2.0,82,0.00,,,0.00,WUHU216HW,2013-08-31 17:46:00,
2013-08-31 10:51:00,63.7,57.8,29.92,ESE,113,0.9,2.0,81,0.00,,,0.00,WUHU216HW,2013-08-31 17:51:00,
2013-08-31 10:56:00,64.2,58.3,29.91,ESE,113,2.2,2.7,81,0.00,,,0.00,WUHU216HW,2013-08-31 17:56:00,
2013-08-31 11:01:00,64.4,58.2,29.91,ESE,113,1.8,2.7,80,0.00,,,0.00,WUHU216HW,2013-08-31 18:01:00,
2013-08-31 11:06:00,64.7,58.5,29.91,South,180,1.8,2.5,80,0.00,,,0.00,WUHU216HW,2013-08-31 18:06:00,
2013-08-31 11:11:00,65.1,58.8,29.91,South,180,1.8,2.5,80,0.00,,,0.00,WUHU216HW,2013-08-31 18:11:00,
2013-08-31 11:16:00,65.3,59.0,29.90,East,90,3.4,3.4,80,0.00,,,0.00,WUHU216HW,2013-08-31 18:16:00,
2013-08-31 11:21:00,65.5,59.2,29.90,ESE,113,1.6,3.8,80,0.00,,,0.00,WUHU216HW,2013-08-31 18:21:00,
2013-08-31 11:26:00,65.8,59.2,29.90,ESE,113,1.3,3.8,79,0.00,,,0.00,WUHU216HW,2013-08-31 18:26:00,
2013-08-31 11:31:00,66.2,59.6,29.90,SSW,203,1.8,2.9,79,0.00,,,0.00,WUHU216HW,2013-08-31 18:31:00,
2013-08-31 11:36:00,66.4,59.4,29.90,SSE,158,2.2,3.1,78,0.00,,,0.00,WUHU216HW,2013-08-31 18:36:00,
2013-08-31 11:41:00,66.5,59.5,29.89,South,180,2.9,3.4,78,0.00,,,0.00,WUHU216HW,2013-08-31 18:41:00,
2013-08-31 11:46:00,66.7,59.7,29.89,SSE,158,2.5,3.4,78,0.00,,,0.00,WUHU216HW,2013-08-31 18:46:00,
2013-08-31 11:51:00,66.9,59.6,29.89,SE,135,1.3,3.4,77,0.00,,,0.00,WUHU216HW,2013-08-31 18:51:00,
2013-08-31 11:56:00,66.9,59.2,29.89,SSW,203,1.1,2.9,76,0.00,,,0.00,WUHU216HW,2013-08-31 18:56:00,
2013-08-31 12:01:00,67.1,59.4,29.88,SE,135,1.3,4.0,76,0.00,,,0.00,WUHU216HW,2013-08-31 19:01:00,
2013-08-31 12:06:00,67.3,59.2,29.88,SSW,203,2.7,4.3,75,0.00,,,0.00,WUHU216HW,2013-08-31 19:06:00,
2013-08-31 12:11:00,67.6,59.2,29.88,NNE,23,2.5,4.3,74,0.00,,,0.00,WUHU216HW,2013-08-31 19:11:00,
2013-08-31 12:16:00,67.6,59.2,29.88,SW,225,2.5,4.0,74,0.00,,,0.00,WUHU216HW,2013-08-31 19:16:00,
2013-08-31 12:21:00,68.0,59.5,29.88,SSE,158,2.5,4.0,74,0.00,,,0.00,WUHU216HW,2013-08-31 19:21:00,
2013-08-31 12:26:00,68.0,59.5,29.87,SSE,158,4.3,4.3,74,0.00,,,0.00,WUHU216HW,2013-08-31 19:26:00,
2013-08-31 12:31:00,68.2,59.4,29.87,NW,315,2.0,4.7,73,0.00,,,0.00,WUHU216HW,2013-08-31 19:31:00,
2013-08-31 12:36:00,68.3,59.5,29.87,SW,225,1.3,4.7,73,0.00,,,0.00,WUHU216HW,2013-08-31 19:36:00,
2013-08-31 12:41:00,68.5,59.7,29.87,South,180,4.9,4.9,73,0.00,,,0.00,WUHU216HW,2013-08-31 19:41:00,
2013-08-31 12:46:00,68.7,59.5,29.87,South,180,2.5,4.9,72,0.00,,,0.00,WUHU216HW,2013-08-31 19:46:00,
2013-08-31 12:51:00,68.7,59.5,29.87,South,180,3.6,4.9,72,0.00,,,0.00,WUHU216HW,2013-08-31 19:51:00,
2013-08-31 12:56:00,68.9,59.7,29.87,SE,135,2.9,4.5,72,0.00,,,0.00,WUHU216HW,2013-08-31 19:56:00,
2013-08-31 13:01:00,69.1,59.9,29.87,SW,225,1.8,4.5,72,0.00,,,0.00,WUHU216HW,2013-08-31 20:01:00,
2013-08-31 13:06:00,69.2,59.9,29.87,SW,225,2.5,3.8,72,0.00,,,0.00,WUHU216HW,2013-08-31 20:06:00,
2013-08-31 13:11:00,69.4,60.1,29.86,SSW,203,2.2,5.1,72,0.00,,,0.00,WUHU216HW,2013-08-31 20:11:00,
2013-08-31 13:16:00,69.6,59.9,29.86,South,180,3.4,5.1,71,0.00,,,0.00,WUHU216HW,2013-08-31 20:16:00,
2013-08-31 13:21:00,69.8,60.1,29.86,South,180,3.1,4.9,71,0.00,,,0.00,WUHU216HW,2013-08-31 20:21:00,
2013-08-31 13:26:00,70.0,60.3,29.86,SW,225,2.9,4.7,71,0.00,,,0.00,WUHU216HW,2013-08-31 20:26:00,
2013-08-31 13:31:00,70.1,60.4,29.86,SW,225,2.9,4.7,71,0.00,,,0.00,WUHU216HW,2013-08-31 20:31:00,
2013-08-31 13:36:00,70.3,60.2,29.86,South,180,2.5,4.7,70,0.00,,,0.00,WUHU216HW,2013-08-31 20:36:00,
2013-08-31 13:41:00,70.3,60.2,29.85,SW,225,3.1,4.7,70,0.00,,,0.00,WUHU216HW,2013-08-31 20:41:00,
2013-08-31 13:46:00,70.5,60.8,29.85,South,180,4.5,4.5,71,0.00,,,0.00,WUHU216HW,2013-08-31 20:46:00,
2013-08-31 13:51:00,70.7,61.0,29.85,SSW,203,2.5,5.1,71,0.00,,,0.00,WUHU216HW,2013-08-31 20:51:00,
2013-08-31 13:56:00,70.9,61.2,29.85,SE,135,0.7,5.1,71,0.00,,,0.00,WUHU216HW,2013-08-31 20:56:00,
2013-08-31 14:01:00,70.9,61.2,29.85,SSW,203,2.2,5.1,71,0.00,,,0.00,WUHU216HW,2013-08-31 21:01:00,
2013-08-31 14:06:00,71.2,61.5,29.85,SSW,203,3.4,5.1,71,0.00,,,0.00,WUHU216HW,2013-08-31 21:06:00,
2013-08-31 14:11:00,71.2,61.5,29.84,SW,225,3.1,4.5,71,0.00,,,0.00,WUHU216HW,2013-08-31 21:11:00,
2013-08-31 14:16:00,71.6,61.9,29.84,SW,225,2.9,4.5,71,0.00,,,0.00,WUHU216HW,2013-08-31 21:16:00,
2013-08-31 14:21:00,71.6,61.9,29.84,SSW,203,5.4,6.5,71,0.00,,,0.00,WUHU216HW,2013-08-31 21:21:00,
2013-08-31 14:26:00,71.8,62.1,29.83,South,180,3.6,6.9,71,0.00,,,0.00,WUHU216HW,2013-08-31 21:26:00,
2013-08-31 14:31:00,71.8,62.1,29.83,SSE,158,3.8,6.9,71,0.00,,,0.00,WUHU216HW,2013-08-31 21:31:00,
2013-08-31 14:36:00,71.8,62.1,29.83,SW,225,4.5,4.7,71,0.00,,,0.00,WUHU216HW,2013-08-31 21:36:00,
2013-08-31 14:41:00,71.9,62.2,29.83,SW,225,3.4,5.1,71,0.00,,,0.00,WUHU216HW,2013-08-31 21:41:00,
2013-08-31 14:46:00,72.1,62.0,29.83,SW,225,4.3,5.6,70,0.00,,,0.00,WUHU216HW,2013-08-31 21:46:00,
2013-08-31 14:51:00,72.1,62.0,29.82,SSW,203,4.0,5.6,70,0.00,,,0.00,WUHU216HW,2013-08-31 21:51:00,
2013-08-31 14:56:00,72.3,62.2,29.83,SSE,158,2.7,5.1,70,0.00,,,0.00,WUHU216HW,2013-08-31 21:56:00,
2013-08-31 15:01:00,72.3,62.2,29.82,SSW,203,2.2,5.1,70,0.00,,,0.00,WUHU216HW,2013-08-31 22:01:00,
2013-08-31 15:06:00,72.5,62.3,29.82,SSW,203,2.9,4.7,70,0.00,,,0.00,WUHU216HW,2013-08-31 22:06:00,
2013-08-31 15:11:00,72.7,62.5,29.82,SW,225,2.0,6.3,70,0.00,,,0.00,WUHU216HW,2013-08-31 22:11:00,
2013-08-31 15:16:00,72.8,62.6,29.82,SW,225,3.4,6.3,70,0.00,,,0.00,WUHU216HW,2013-08-31 22:16:00,
2013-08-31 15:21:00,73.0,62.8,29.81,SSW,203,2.7,4.3,70,0.00,,,0.00,WUHU216HW,2013-08-31 22:21:00,
2013-08-31 15:26:00,73.0,62.8,29.81,SSW,203,2.5,4.5,70,0.00,,,0.00,WUHU216HW,2013-08-31 22:26:00,
2013-08-31 15:31:00,73.2,63.0,29.81,SW,225,1.3,5.4,70,0.00,,,0.00,WUHU216HW,2013-08-31 22:31:00,
2013-08-31 15:36:00,73.4,63.2,29.81,SSW,203,3.8,5.4,70,0.00,,,0.00,WUHU216HW,2013-08-31 22:36:00,
2013-08-31 15:41:00,73.4,63.2,29.80,SSW,203,1.1,3.8,70,0.00,,,0.00,WUHU216HW,2013-08-31 22:41:00,
2013-08-31 15:46:00,73.4,62.8,29.80,WNW,293,1.1,3.8,69,0.00,,,0.00,WUHU216HW,2013-08-31 22:46:00,
2013-08-31 15:51:00,73.7,63.5,29.80,South,180,3.4,3.6,70,0.00,,,0.00,WUHU216HW,2013-08-31 22:51:00,
2013-08-31 15:56:00,73.7,63.5,29.80,NE,45,1.1,3.6,70,0.00,,,0.00,WUHU216HW,2013-08-31 22:56:00,
2013-08-31 16:01:00,73.7,63.5,29.79,SSE,158,0.4,3.4,70,0.00,,,0.00,WUHU216HW,2013-08-31 23:01:00,
2013-08-31 16:06:00,73.9,63.7,29.79,West,270,1.1,2.0,70,0.00,,,0.00,WUHU216HW,2013-08-31 23:06:00,
2013-08-31 16:11:00,73.7,63.5,29.79,NNW,338,0.9,3.4,70,0.00,,,0.00,WUHU216HW,2013-08-31 23:11:00,
2013-08-31 16:16:00,73.9,63.3,29.79,SW,225,0.4,3.4,69,0.00,,,0.00,WUHU216HW,2013-08-31 23:16:00,
2013-08-31 16:21:00,73.9,63.3,29.79,SW,225,0.7,2.2,69,0.00,,,0.00,WUHU216HW,2013-08-31 23:21:00,
2013-08-31 16:26:00,73.9,63.3,29.79,SSW,203,2.5,2.5,69,0.00,,,0.00,WUHU216HW,2013-08-31 23:26:00,
2013-08-31 16:31:00,73.7,63.5,29.78,SW,225,1.1,2.5,70,0.00,,,0.00,WUHU216HW,2013-08-31 23:31:00,
2013-08-31 16:36:00,73.9,63.3,29.78,SSW,203,0.9,3.6,69,0.00,,,0.00,WUHU216HW,2013-08-31 23:36:00,
2013-08-31 16:41:00,73.9,63.3,29.78,SSW,203,1.8,3.6,69,0.00,,,0.00,WUHU216HW,2013-08-31 23:41:00,
2013-08-31 16:46:00,73.9,63.3,29.78,SSW,203,3.4,3.4,69,0.00,,,0.00,WUHU216HW,2013-08-31 23:46:00,
2013-08-31 16:51:00,73.9,63.3,29.78,WSW,248,0.9,3.4,69,0.00,,,0.00,WUHU216HW,2013-08-31 23:51:00,
2013-08-31 16:56:00,74.1,63.5,29.78,SSW,203,2.5,3.8,69,0.00,,,0.00,WUHU216HW,2013-08-31 23:56:00,
2013-08-31 17:01:00,74.1,63.5,29.78,ESE,113,0.9,3.8,69,0.00,,,0.00,WUHU216HW,2013-09-01 00:01:00,
2013-08-31 17:06:00,74.1,63.9,29.78,SE,135,1.1,3.4,70,0.00,,,0.00,WUHU216HW,2013-09-01 00:06:00,
2013-08-31 17:11:00,74.3,64.1,29.78,SSW,203,0.4,2.2,70,0.00,,,0.00,WUHU216HW,2013-09-01 00:11:00,
2013-08-31 17:16:00,74.3,64.1,29.78,SW,225,3.4,3.4,70,0.00,,,0.00,WUHU216HW,2013-09-01 00:16:00,
2013-08-31 17:21:00,74.3,63.7,29.77,SW,225,2.2,3.6,69,0.00,,,0.00,WUHU216HW,2013-09-01 00:21:00,
2013-08-31 17:26:00,74.5,63.9,29.77,SW,225,1.3,3.8,69,0.00,,,0.00,WUHU216HW,2013-09-01 00:26:00,
2013-08-31 17:31:00,74.8,64.6,29.77,SW,225,2.0,3.8,70,0.00,,,0.00,WUHU216HW,2013-09-01 00:31:00,
2013-08-31 17:36:00,74.8,64.6,29.77,East,90,1.1,2.9,70,0.00,,,0.00,WUHU216HW,2013-09-01 00:36:00,
2013-08-31 17:41:00,75.0,64.3,29.77,SSE,158,0.0,2.0,69,0.00,,,0.00,WUHU216HW,2013-09-01 00:41:00,
2013-08-31 17:46:00,75.0,64.3,29.77,SW,225,1.1,2.2,69,0.00,,,0.00,WUHU216HW,2013-09-01 00:46:00,
2013-08-31 17:51:00,74.8,63.7,29.77,ENE,68,0.0,2.2,68,0.00,,,0.00,WUHU216HW,2013-09-01 00:51:00,
2013-08-31 17:56:00,74.8,64.2,29.77,SSW,203,0.2,1.1,69,0.00,,,0.00,WUHU216HW,2013-09-01 00:56:00,
2013-08-31 18:01:00,74.5,63.5,29.77,NNW,338,0.7,1.1,68,0.00,,,0.00,WUHU216HW,2013-09-01 01:01:00,
2013-08-31 18:06:00,74.1,63.5,29.77,SSW,203,0.0,1.3,69,0.00,,,0.00,WUHU216HW,2013-09-01 01:06:00,
2013-08-31 18:11:00,73.9,63.3,29.77,South,180,2.9,2.9,69,0.00,,,0.00,WUHU216HW,2013-09-01 01:11:00,
2013-08-31 18:16:00,73.7,63.1,29.78,WSW,248,1.1,2.9,69,0.00,,,0.00,WUHU216HW,2013-09-01 01:16:00,
2013-08-31 18:21:00,73.6,63.0,29.77,SSW,203,1.3,2.9,69,0.00,,,0.00,WUHU216HW,2013-09-01 01:21:00,
2013-08-31 18:26:00,73.4,62.8,29.77,SSW,203,0.4,2.0,69,0.00,,,0.00,WUHU216HW,2013-09-01 01:26:00,
2013-08-31 18:31:00,73.2,62.6,29.77,SW,225,0.7,2.0,69,0.00,,,0.00,WUHU216HW,2013-09-01 01:31:00,
2013-08-31 18:36:00,73.0,62.8,29.77,WSW,248,0.7,1.1,70,0.00,,,0.00,WUHU216HW,2013-09-01 01:36:00,
2013-08-31 18:41:00,72.7,62.5,29.77,SW,225,0.4,1.3,70,0.00,,,0.00,WUHU216HW,2013-09-01 01:41:00,
2013-08-31 18:46:00,72.3,62.5,29.77,SW,225,0.2,1.3,71,0.00,,,0.00,WUHU216HW,2013-09-01 01:46:00,
2013-08-31 18:51:00,71.9,62.2,29.77,WSW,248,0.0,1.1,71,0.00,,,0.00,WUHU216HW,2013-09-01 01:51:00,
2013-08-31 18:56:00,71.6,62.3,29.77,WSW,248,0.2,0.7,72,0.00,,,0.00,WUHU216HW,2013-09-01 01:56:00,
2013-08-31 19:01:00,71.4,62.1,29.77,WNW,293,0.9,0.9,72,0.00,,,0.00,WUHU216HW,2013-09-01 02:01:00,
2013-08-31 19:06:00,70.9,62.0,29.78,WNW,293,0.0,0.9,73,0.00,,,0.00,WUHU216HW,2013-09-01 02:06:00,
2013-08-31 19:11:00,70.5,61.2,29.77,WNW,293,0.0,0.9,72,0.00,,,0.00,WUHU216HW,2013-09-01 02:11:00,
2013-08-31 19:16:00,70.1,61.2,29.77,WNW,293,0.4,0.7,73,0.00,,,0.00,WUHU216HW,2013-09-01 02:16:00,
2013-08-31 19:21:00,69.8,60.9,29.77,WNW,293,0.0,0.7,73,0.00,,,0.00,WUHU216HW,2013-09-01 02:21:00,
2013-08-31 19:26:00,69.4,60.9,29.77,WNW,293,0.0,0.4,74,0.00,,,0.00,WUHU216HW,2013-09-01 02:26:00,
2013-08-31 19:31:00,69.2,60.7,29.77,WNW,293,0.0,0.4,74,0.00,,,0.00,WUHU216HW,2013-09-01 02:31:00,
2013-08-31 19:36:00,69.1,60.6,29.77,WNW,293,0.4,0.4,74,0.00,,,0.00,WUHU216HW,2013-09-01 02:36:00,
2013-08-31 19:41:00,68.7,60.6,29.77,WNW,293,0.7,0.7,75,0.00,,,0.00,WUHU216HW,2013-09-01 02:41:00,
2013-08-31 19:46:00,68.3,60.2,29.77,WNW,293,0.7,0.7,75,0.00,,,0.00,WUHU216HW,2013-09-01 02:46:00,
2013-08-31 19:51:00,68.0,60.3,29.77,WNW,293,0.0,0.7,76,0.00,,,0.00,WUHU216HW,2013-09-01 02:51:00,
2013-08-31 19:56:00,67.8,60.4,29.77,WNW,293,0.0,0.4,77,0.00,,,0.00,WUHU216HW,2013-09-01 02:56:00,
2013-08-31 20:01:00,67.4,60.0,29.77,WNW,293,0.0,0.0,77,0.00,,,0.00,WUHU216HW,2013-09-01 03:01:00,
2013-08-31 20:06:00,67.3,59.9,29.77,WNW,293,0.2,0.7,77,0.00,,,0.00,WUHU216HW,2013-09-01 03:06:00,
2013-08-31 20:11:00,66.9,59.6,29.77,WNW,293,0.0,0.7,77,0.00,,,0.00,WUHU216HW,2013-09-01 03:11:00,
2013-08-31 20:16:00,66.4,59.4,29.77,WNW,293,0.0,0.4,78,0.00,,,0.00,WUHU216HW,2013-09-01 03:16:00,
2013-08-31 20:21:00,66.0,59.4,29.77,WNW,293,0.4,0.4,79,0.00,,,0.00,WUHU216HW,2013-09-01 03:21:00,
2013-08-31 20:26:00,66.0,59.7,29.77,WNW,293,0.0,0.4,80,0.00,,,0.00,WUHU216HW,2013-09-01 03:26:00,
2013-08-31 20:31:00,65.8,59.5,29.77,WNW,293,0.2,0.4,80,0.00,,,0.00,WUHU216HW,2013-09-01 03:31:00,
2013-08-31 20:36:00,65.5,59.2,29.77,WNW,293,0.4,1.1,80,0.00,,,0.00,WUHU216HW,2013-09-01 03:36:00,
2013-08-31 20:41:00,65.1,58.8,29.78,WNW,293,0.2,1.1,80,0.00,,,0.00,WUHU216HW,2013-09-01 03:41:00,
2013-08-31 20:46:00,65.1,59.2,29.78,WNW,293,0.0,0.7,81,0.00,,,0.00,WUHU216HW,2013-09-01 03:46:00,
2013-08-31 20:51:00,64.9,59.0,29.78,WNW,293,0.0,0.4,81,0.00,,,0.00,WUHU216HW,2013-09-01 03:51:00,
2013-08-31 20:56:00,64.7,59.1,29.78,WNW,293,0.4,0.7,82,0.00,,,0.00,WUHU216HW,2013-09-01 03:56:00,
2013-08-31 21:01:00,64.6,59.0,29.78,WNW,293,0.0,0.7,82,0.00,,,0.00,WUHU216HW,2013-09-01 04:01:00,
2013-08-31 21:02:00,64.6,59.0,29.77,WNW,293,0.0,0.7,82,0.00,,,0.00,WUHU216HW,2013-09-01 04:02:00,
2013-08-31 21:07:00,64.2,58.6,29.78,WNW,293,0.0,0.0,82,0.00,,,0.00,WUHU216HW,2013-09-01 04:07:00,
2013-08-31 21:12:00,64.0,58.8,29.78,WNW,293,0.7,0.7,83,0.00,,,0.00,WUHU216HW,2013-09-01 04:12:00,
2013-08-31 21:17:00,63.8,58.6,29.78,WNW,293,0.2,0.7,83,0.00,,,0.00,WUHU216HW,2013-09-01 04:17:00,
2013-08-31 21:22:00,63.7,58.5,29.78,WNW,293,0.0,0.7,83,0.00,,,0.00,WUHU216HW,2013-09-01 04:22:00,
2013-08-31 21:27:00,63.7,58.8,29.78,WNW,293,0.0,0.2,84,0.00,,,0.00,WUHU216HW,2013-09-01 04:27:00,
2013-08-31 21:32:00,63.5,58.6,29.77,WNW,293,0.0,0.0,84,0.00,,,0.00,WUHU216HW,2013-09-01 04:32:00,
2013-08-31 21:37:00,63.3,58.4,29.78,WNW,293,0.0,0.0,84,0.00,,,0.00,WUHU216HW,2013-09-01 04:37:00,
2013-08-31 21:42:00,62.9,57.7,29.77,WNW,293,0.0,0.4,83,0.00,,,0.00,WUHU216HW,2013-09-01 04:42:00,
2013-08-31 21:47:00,62.9,57.7,29.78,WNW,293,0.0,0.4,83,0.00,,,0.00,WUHU216HW,2013-09-01 04:47:00,
2013-08-31 21:52:00,62.8,57.9,29.78,WNW,293,0.0,0.4,84,0.00,,,0.00,WUHU216HW,2013-09-01 04:52:00,
2013-08-31 21:57:00,62.8,57.9,29.78,WNW,293,0.0,0.4,84,0.00,,,0.00,WUHU216HW,2013-09-01 04:57:00,
2013-08-31 22:02:00,62.6,57.7,29.78,WNW,293,0.0,0.4,84,0.00,,,0.00,WUHU216HW,2013-09-01 05:02:00,
2013-08-31 22:07:00,62.6,57.7,29.77,WNW,293,0.0,0.4,84,0.00,,,0.00,WUHU216HW,2013-09-01 05:07:00,
2013-08-31 22:12:00,62.6,58.0,29.78,WNW,293,0.0,0.4,85,0.00,,,0.00,WUHU216HW,2013-09-01 05:12:00,
2013-08-31 22:17:00,62.4,57.5,29.78,WNW,293,0.0,0.4,84,0.00,,,0.00,WUHU216HW,2013-09-01 05:17:00,
2013-08-31 22:22:00,62.2,57.6,29.78,WNW,293,0.0,0.4,85,0.00,,,0.00,WUHU216HW,2013-09-01 05:22:00,
2013-08-31 22:27:00,62.0,57.4,29.78,WNW,293,0.2,0.4,85,0.00,,,0.00,WUHU216HW,2013-09-01 05:27:00,
2013-08-31 22:32:00,61.9,57.4,29.78,WNW,293,0.4,0.4,85,0.00,,,0.00,WUHU216HW,2013-09-01 05:32:00,
2013-08-31 22:37:00,61.9,57.4,29.77,WNW,293,0.0,0.4,85,0.00,,,0.00,WUHU216HW,2013-09-01 05:37:00,
2013-08-31 22:42:00,61.7,57.2,29.77,WNW,293,0.0,0.4,85,0.00,,,0.00,WUHU216HW,2013-09-01 05:42:00,
2013-08-31 22:47:00,61.7,57.2,29.78,WNW,293,0.0,0.4,85,0.00,,,0.00,WUHU216HW,2013-09-01 05:47:00,
2013-08-31 22:52:00,61.5,57.3,29.78,WNW,293,0.0,0.4,86,0.00,,,0.00,WUHU216HW,2013-09-01 05:52:00,
2013-08-31 22:57:00,61.5,57.3,29.77,WNW,293,0.0,0.4,86,0.00,,,0.00,WUHU216HW,2013-09-01 05:57:00,
2013-08-31 23:02:00,61.3,57.1,29.77,WNW,293,0.4,0.7,86,0.00,,,0.00,WUHU216HW,2013-09-01 06:02:00,
2013-08-31 23:07:00,61.3,57.1,29.77,WNW,293,0.0,0.7,86,0.00,,,0.00,WUHU216HW,2013-09-01 06:07:00,
2013-08-31 23:12:00,61.3,57.1,29.77,WNW,293,0.2,0.7,86,0.00,,,0.00,WUHU216HW,2013-09-01 06:12:00,
2013-08-31 23:17:00,61.1,56.9,29.77,WNW,293,0.4,0.7,86,0.00,,,0.00,WUHU216HW,2013-09-01 06:17:00,
2013-08-31 23:22:00,61.0,57.1,29.77,WNW,293,0.2,0.7,87,0.00,,,0.00,WUHU216HW,2013-09-01 06:22:00,
2013-08-31 23:27:00,61.0,57.1,29.77,WNW,293,0.0,0.7,87,0.00,,,0.00,WUHU216HW,2013-09-01 06:27:00,
2013-08-31 23:32:00,60.8,56.9,29.77,WNW,293,0.0,0.7,87,0.00,,,0.00,WUHU216HW,2013-09-01 06:32:00,
2013-08-31 23:37:00,60.8,56.9,29.77,WNW,293,0.0,0.7,87,0.00,,,0.00,WUHU216HW,2013-09-01 06:37:00,
2013-08-31 23:42:00,60.6,56.7,29.77,WNW,293,0.0,0.4,87,0.00,,,0.00,WUHU216HW,2013-09-01 06:42:00,
2013-08-31 23:47:00,60.6,56.7,29.77,WNW,293,0.0,0.0,87,0.00,,,0.00,WUHU216HW,2013-09-01 06:47:00,
2013-08-31 23:52:00,60.4,56.5,29.77,WNW,293,0.2,0.7,87,0.00,,,0.00,WUHU216HW,2013-09-01 06:52:00,
2013-08-31 23:57:00,60.4,56.5,29.77,WNW,293,0.0,0.7,87,0.00,,,0.00,WUHU216HW,2013-09-01 06:57:00,